createdAt,value
2022-12-25T00:00:51.120Z,215.25
2022-12-25T00:01:53.924Z,82.18
2022-12-25T00:02:57.254Z,85.90
2022-12-25T00:04:00.494Z,109.70
2022-12-25T00:05:02.505Z,87.38
2022-12-25T00:06:05.782Z,100.18
2022-12-25T00:07:07.579Z,103.55
2022-12-25T00:08:10.974Z,207.38
2022-12-25T00:09:13.019Z,125.90
2022-12-25T00:10:15.726Z,446.10
2022-12-25T00:11:19.616Z,317.23
2022-12-25T00:12:22.495Z,245.05
2022-12-25T00:13:24.286Z,290.40
2022-12-25T00:14:27.124Z,62.15
2022-12-25T00:15:29.037Z,91.93
2022-12-25T00:16:32.107Z,165.63
2022-12-25T00:17:34.000Z,227.10
2022-12-25T00:18:38.511Z,271.05
2022-12-25T00:19:40.342Z,273.85
2022-12-25T00:20:43.114Z,188.90
2022-12-25T00:21:44.920Z,329.30
2022-12-25T00:22:47.636Z,281.08
2022-12-25T00:23:53.605Z,352.00
2022-12-25T00:24:56.364Z,242.82
2022-12-25T00:25:58.495Z,208.02
2022-12-25T00:27:01.254Z,148.30
2022-12-25T00:28:03.357Z,236.43
2022-12-25T00:29:06.104Z,325.92
2022-12-25T00:30:09.477Z,296.85
2022-12-25T00:31:14.594Z,298.77
2022-12-25T00:32:16.500Z,292.73
2022-12-25T00:33:19.758Z,339.75
2022-12-25T00:34:22.937Z,297.73
2022-12-25T00:35:25.627Z,248.80
2022-12-25T00:36:27.820Z,375.20
2022-12-25T00:37:30.943Z,304.27
2022-12-25T00:38:35.737Z,309.90
2022-12-25T00:39:38.654Z,303.92
2022-12-25T00:40:44.282Z,286.13
2022-12-25T00:42:04.539Z,300.23
2022-12-25T00:43:07.319Z,248.20
2022-12-25T00:44:10.781Z,320.90
2022-12-25T00:45:15.817Z,394.63
2022-12-25T00:46:17.865Z,469.60
2022-12-25T00:47:21.126Z,517.47
2022-12-25T00:48:23.151Z,518.28
2022-12-25T00:49:27.307Z,662.67
2022-12-25T00:50:29.534Z,435.40
2022-12-25T00:51:32.952Z,243.30
2022-12-25T00:52:34.768Z,267.70
2022-12-25T00:53:37.576Z,435.10
2022-12-25T00:54:39.518Z,320.02
2022-12-25T00:55:42.273Z,411.77
2022-12-25T00:56:44.809Z,330.63
2022-12-25T00:57:47.519Z,224.70
2022-12-25T00:58:49.383Z,262.35
2022-12-25T00:59:53.252Z,154.65
2022-12-25T01:00:56.174Z,123.65
2022-12-25T01:02:19.887Z,274.48
2022-12-25T01:03:22.090Z,228.02
2022-12-25T01:04:25.363Z,284.02
2022-12-25T01:05:28.510Z,234.55
2022-12-25T01:06:31.744Z,173.48
2022-12-25T01:07:33.553Z,162.23
2022-12-25T01:08:38.759Z,218.75
2022-12-25T01:09:59.296Z,248.82
2022-12-25T01:11:02.718Z,398.90
2022-12-25T01:12:04.630Z,351.08
2022-12-25T01:13:08.110Z,258.08
2022-12-25T01:14:10.340Z,172.73
2022-12-25T01:15:13.942Z,141.43
2022-12-25T01:16:16.451Z,168.15
2022-12-25T01:17:19.235Z,99.22
2022-12-25T01:18:23.509Z,93.80
2022-12-25T01:19:25.443Z,88.60
2022-12-25T01:20:29.659Z,169.07
2022-12-25T01:21:31.904Z,154.82
2022-12-25T01:22:34.730Z,106.22
2022-12-25T01:23:36.544Z,103.53
2022-12-25T01:24:39.291Z,104.13
2022-12-25T01:26:02.297Z,93.70
2022-12-25T01:27:05.996Z,88.78
2022-12-25T01:28:08.262Z,89.65
2022-12-25T01:29:11.460Z,153.13
2022-12-25T01:30:14.370Z,98.82
2022-12-25T01:31:19.326Z,82.97
2022-12-25T01:32:21.346Z,326.75
2022-12-25T01:33:24.121Z,284.77
2022-12-25T01:34:25.903Z,170.85
2022-12-25T01:35:30.094Z,172.40
2022-12-25T01:36:32.052Z,129.48
2022-12-25T01:37:34.839Z,117.13
2022-12-25T01:38:36.964Z,99.78
2022-12-25T01:39:39.758Z,93.90
2022-12-25T01:40:43.287Z,103.57
2022-12-25T01:41:46.213Z,122.25
2022-12-25T01:42:48.043Z,162.90
2022-12-25T01:44:05.925Z,171.73
2022-12-25T01:45:32.084Z,202.80
2022-12-25T01:46:35.843Z,322.27
2022-12-25T01:47:37.633Z,135.55
2022-12-25T01:48:40.767Z,154.55
2022-12-25T01:49:45.397Z,185.32
2022-12-25T01:50:55.569Z,260.85
2022-12-25T01:52:23.638Z,197.13
2022-12-25T01:53:27.711Z,236.38
2022-12-25T01:54:31.971Z,188.60
2022-12-25T01:55:35.541Z,115.88
2022-12-25T01:56:38.038Z,141.38
2022-12-25T01:57:41.691Z,151.98
2022-12-25T01:58:43.565Z,168.25
2022-12-25T01:59:47.162Z,123.28
2022-12-25T02:00:49.419Z,226.50
2022-12-25T02:01:52.556Z,124.65
2022-12-25T02:02:54.898Z,247.35
2022-12-25T02:04:02.263Z,241.63
2022-12-25T02:05:06.102Z,158.35
2022-12-25T02:06:10.511Z,170.40
2022-12-25T02:07:15.137Z,134.38
2022-12-25T02:08:20.195Z,125.20
2022-12-25T02:09:22.078Z,160.52
2022-12-25T02:10:25.040Z,164.05
2022-12-25T02:11:45.694Z,112.22
2022-12-25T02:12:48.780Z,102.30
2022-12-25T02:13:50.555Z,168.77
2022-12-25T02:15:04.870Z,133.05
2022-12-25T02:16:11.204Z,86.70
2022-12-25T02:17:20.565Z,204.07
2022-12-25T02:18:31.574Z,79.63
2022-12-25T02:19:47.883Z,77.05
2022-12-25T02:21:07.758Z,64.53
2022-12-25T02:22:16.834Z,65.28
2022-12-25T02:23:59.084Z,66.20
2022-12-25T02:25:09.322Z,69.72
2022-12-25T02:26:17.751Z,62.53
2022-12-25T02:27:29.059Z,109.97
2022-12-25T02:28:37.986Z,246.27
2022-12-25T02:29:48.346Z,478.08
2022-12-25T02:30:53.800Z,364.25
2022-12-25T02:31:59.532Z,59.72
2022-12-25T02:33:20.132Z,116.07
2022-12-25T02:34:28.879Z,87.78
2022-12-25T02:35:31.031Z,116.97
2022-12-25T02:36:39.168Z,80.97
2022-12-25T02:37:45.409Z,191.18
2022-12-25T02:39:04.596Z,199.45
2022-12-25T02:40:10.457Z,167.23
2022-12-25T02:41:15.314Z,175.75
2022-12-25T02:42:24.104Z,233.70
2022-12-25T02:43:47.918Z,231.18
2022-12-25T02:45:10.437Z,224.55
2022-12-25T02:46:32.771Z,149.60
2022-12-25T02:47:54.005Z,91.90
2022-12-25T02:49:17.288Z,91.05
2022-12-25T02:50:38.566Z,83.18
2022-12-25T02:52:01.943Z,137.55
2022-12-25T02:53:22.553Z,177.38
2022-12-25T02:54:46.693Z,291.65
2022-12-25T02:56:08.457Z,377.05
2022-12-25T02:57:30.703Z,123.30
2022-12-25T02:58:53.041Z,70.93
2022-12-25T03:00:16.451Z,67.45
2022-12-25T03:01:39.324Z,176.63
2022-12-25T03:03:01.264Z,211.30
2022-12-25T03:04:24.926Z,113.40
2022-12-25T03:05:45.586Z,71.22
2022-12-25T03:07:00.843Z,63.75
2022-12-25T03:08:04.957Z,194.15
2022-12-25T03:09:22.712Z,331.35
2022-12-25T03:10:56.254Z,508.90
2022-12-25T03:12:02.289Z,267.02
2022-12-25T03:13:26.711Z,189.40
2022-12-25T03:14:47.208Z,366.83
2022-12-25T03:16:09.106Z,381.92
2022-12-25T03:17:11.591Z,147.23
2022-12-25T03:18:16.414Z,249.43
2022-12-25T03:19:38.250Z,74.47
2022-12-25T03:20:59.048Z,84.63
2022-12-25T03:22:19.734Z,91.90
2022-12-25T03:23:41.986Z,158.55
2022-12-25T03:25:02.146Z,91.45
2022-12-25T03:26:23.055Z,587.42
2022-12-25T03:27:26.350Z,389.23
2022-12-25T03:28:28.129Z,264.98
2022-12-25T03:29:50.300Z,157.93
2022-12-25T03:31:14.651Z,415.73
2022-12-25T03:32:22.922Z,336.75
2022-12-25T03:33:46.255Z,487.02
2022-12-25T03:35:12.617Z,409.85
2022-12-25T03:36:21.718Z,509.70
2022-12-25T03:37:43.251Z,483.20
2022-12-25T03:39:08.149Z,391.48
2022-12-25T03:40:35.035Z,375.70
2022-12-25T03:41:59.641Z,540.90
2022-12-25T03:43:25.861Z,366.42
2022-12-25T03:45:01.769Z,218.85
2022-12-25T03:46:29.822Z,363.42
2022-12-25T03:47:48.980Z,364.08
2022-12-25T03:49:11.262Z,376.00
2022-12-25T03:50:35.408Z,442.80
2022-12-25T03:51:57.472Z,344.67
2022-12-25T03:53:20.114Z,386.10
2022-12-25T03:54:43.792Z,285.88
2022-12-25T03:56:00.595Z,102.45
2022-12-25T03:57:21.011Z,127.80
2022-12-25T03:58:43.915Z,116.60
2022-12-25T04:00:24.527Z,197.35
2022-12-25T04:01:46.079Z,146.52
2022-12-25T04:03:06.521Z,93.45
2022-12-25T04:04:26.821Z,116.40
2022-12-25T04:05:47.101Z,205.82
2022-12-25T04:07:07.700Z,189.73
2022-12-25T04:08:28.044Z,600.70
2022-12-25T04:09:53.736Z,358.77
2022-12-25T04:11:14.272Z,109.03
2022-12-25T04:12:34.997Z,226.52
2022-12-25T04:13:55.122Z,278.35
2022-12-25T04:15:23.755Z,231.40
2022-12-25T04:16:45.199Z,327.55
2022-12-25T04:18:06.005Z,125.00
2022-12-25T04:19:27.728Z,198.32
2022-12-25T04:20:48.224Z,118.85
2022-12-25T04:22:17.358Z,125.25
2022-12-25T04:23:38.037Z,88.15
2022-12-25T04:25:00.798Z,107.55
2022-12-25T04:26:21.395Z,76.22
2022-12-25T04:27:41.649Z,77.00
2022-12-25T04:29:01.919Z,78.85
2022-12-25T04:30:23.100Z,123.95
2022-12-25T04:31:43.829Z,85.20
2022-12-25T04:33:05.331Z,86.25
2022-12-25T04:34:25.540Z,82.88
2022-12-25T04:35:45.847Z,71.43
2022-12-25T04:36:49.031Z,69.95
2022-12-25T04:37:51.081Z,121.57
2022-12-25T04:38:53.877Z,107.30
2022-12-25T04:39:55.724Z,69.65
2022-12-25T04:40:58.491Z,99.18
2022-12-25T04:42:01.384Z,143.57
2022-12-25T04:43:04.241Z,65.75
2022-12-25T04:44:06.064Z,54.42
2022-12-25T04:45:10.094Z,49.78
2022-12-25T04:46:12.001Z,61.70
2022-12-25T04:47:14.795Z,155.00
2022-12-25T04:48:17.914Z,54.45
2022-12-25T04:49:20.746Z,66.82
2022-12-25T04:50:22.534Z,54.40
2022-12-25T04:51:26.638Z,61.90
2022-12-25T04:52:28.953Z,92.63
2022-12-25T04:53:31.705Z,91.50
2022-12-25T04:54:33.527Z,65.32
2022-12-25T04:55:36.321Z,47.95
2022-12-25T04:56:43.490Z,50.22
2022-12-25T04:57:48.608Z,54.38
2022-12-25T04:58:50.506Z,121.47
2022-12-25T04:59:53.359Z,104.70
2022-12-25T05:00:55.151Z,103.85
2022-12-25T05:01:58.117Z,106.85
2022-12-25T05:03:00.210Z,65.78
2022-12-25T05:04:04.736Z,79.82
2022-12-25T05:05:07.425Z,61.35
2022-12-25T05:06:10.244Z,51.10
2022-12-25T05:07:12.087Z,55.03
2022-12-25T05:08:15.155Z,55.63
2022-12-25T05:09:17.042Z,78.47
2022-12-25T05:10:20.031Z,59.53
2022-12-25T05:11:22.273Z,55.45
2022-12-25T05:12:25.101Z,57.97
2022-12-25T05:13:26.953Z,48.97
2022-12-25T05:14:30.022Z,45.95
2022-12-25T05:15:31.974Z,66.35
2022-12-25T05:16:34.813Z,48.67
2022-12-25T05:17:37.471Z,53.30
2022-12-25T05:18:40.227Z,83.18
2022-12-25T05:19:44.003Z,59.20
2022-12-25T05:20:52.942Z,54.58
2022-12-25T05:21:55.237Z,76.70
2022-12-25T05:22:57.988Z,54.00
2022-12-25T05:24:00.534Z,100.53
2022-12-25T05:25:03.707Z,66.25
2022-12-25T05:26:06.469Z,57.35
2022-12-25T05:27:09.285Z,66.60
2022-12-25T05:28:11.103Z,108.70
2022-12-25T05:29:13.822Z,222.32
2022-12-25T05:30:16.105Z,210.15
2022-12-25T05:31:19.294Z,196.25
2022-12-25T05:32:21.222Z,122.32
2022-12-25T05:33:24.492Z,71.63
2022-12-25T05:34:26.295Z,81.93
2022-12-25T05:35:30.384Z,116.93
2022-12-25T05:36:32.141Z,152.43
2022-12-25T05:37:34.927Z,158.00
2022-12-25T05:38:37.317Z,104.18
2022-12-25T05:39:40.373Z,121.57
2022-12-25T05:40:42.147Z,349.10
2022-12-25T05:41:44.929Z,113.20
2022-12-25T05:42:46.765Z,77.68
2022-12-25T05:43:49.551Z,81.88
2022-12-25T05:44:51.278Z,150.80
2022-12-25T05:45:54.159Z,117.18
2022-12-25T05:46:55.985Z,227.88
2022-12-25T05:47:58.808Z,201.52
2022-12-25T05:49:00.659Z,175.70
2022-12-25T05:50:03.504Z,248.18
2022-12-25T05:51:08.132Z,100.25
2022-12-25T05:52:11.091Z,99.22
2022-12-25T05:53:14.481Z,76.00
2022-12-25T05:54:17.877Z,77.40
2022-12-25T05:55:19.704Z,134.52
2022-12-25T05:56:22.477Z,117.45
2022-12-25T05:57:24.359Z,173.55
2022-12-25T05:58:27.179Z,176.30
2022-12-25T05:59:29.223Z,151.60
2022-12-25T06:00:32.169Z,417.63
2022-12-25T06:01:34.015Z,85.25
2022-12-25T06:02:37.416Z,105.03
2022-12-25T06:03:39.486Z,87.28
2022-12-25T06:04:42.510Z,85.63
2022-12-25T06:05:44.248Z,138.27
2022-12-25T06:06:48.356Z,294.23
2022-12-25T06:07:50.151Z,295.73
2022-12-25T06:08:54.649Z,156.60
2022-12-25T06:09:56.463Z,221.00
2022-12-25T06:10:59.223Z,367.58
2022-12-25T06:12:00.957Z,402.60
2022-12-25T06:13:03.744Z,379.63
2022-12-25T06:14:05.873Z,278.20
2022-12-25T06:15:10.008Z,187.63
2022-12-25T06:16:12.611Z,241.93
2022-12-25T06:17:15.480Z,379.65
2022-12-25T06:18:17.278Z,160.00
2022-12-25T06:19:20.062Z,244.93
2022-12-25T06:20:22.100Z,248.80
2022-12-25T06:21:25.059Z,502.95
2022-12-25T06:22:30.120Z,489.33
2022-12-25T06:23:33.199Z,474.77
2022-12-25T06:24:35.120Z,502.55
2022-12-25T06:25:40.036Z,535.15
2022-12-25T06:26:42.464Z,478.65
2022-12-25T06:27:45.247Z,474.45
2022-12-25T06:28:47.324Z,444.83
2022-12-25T06:29:50.508Z,414.40
2022-12-25T06:30:52.347Z,397.67
2022-12-25T06:31:57.410Z,467.27
2022-12-25T06:33:00.113Z,366.98
2022-12-25T06:34:02.902Z,124.88
2022-12-25T06:35:05.479Z,467.17
2022-12-25T06:36:08.973Z,464.02
2022-12-25T06:37:10.784Z,539.55
2022-12-25T06:38:14.842Z,477.48
2022-12-25T06:39:17.201Z,396.65
2022-12-25T06:40:20.248Z,196.85
2022-12-25T06:41:23.451Z,154.52
2022-12-25T06:42:26.252Z,268.20
2022-12-25T06:43:28.019Z,144.95
2022-12-25T06:44:30.752Z,435.92
2022-12-25T06:45:35.048Z,314.27
2022-12-25T06:46:38.043Z,343.95
2022-12-25T06:47:39.891Z,210.70
2022-12-25T06:48:47.846Z,299.38
2022-12-25T06:49:49.650Z,166.93
2022-12-25T06:50:52.367Z,388.92
2022-12-25T06:51:54.273Z,354.17
2022-12-25T06:52:57.441Z,182.77
2022-12-25T06:54:03.825Z,234.82
2022-12-25T06:55:07.646Z,100.35
2022-12-25T06:56:15.183Z,402.75
2022-12-25T06:57:18.869Z,249.10
2022-12-25T06:58:20.720Z,197.32
2022-12-25T06:59:23.492Z,121.68
2022-12-25T07:00:25.296Z,67.22
2022-12-25T07:01:30.667Z,142.73
2022-12-25T07:02:33.445Z,164.23
2022-12-25T07:03:36.268Z,249.15
2022-12-25T07:04:40.247Z,270.58
2022-12-25T07:05:44.849Z,301.85
2022-12-25T07:06:46.748Z,279.52
2022-12-25T07:07:49.849Z,341.52
2022-12-25T07:08:51.614Z,496.45
2022-12-25T07:09:55.755Z,376.08
2022-12-25T07:10:57.559Z,364.48
2022-12-25T07:12:04.375Z,254.38
2022-12-25T07:13:06.248Z,169.93
2022-12-25T07:14:09.914Z,169.75
2022-12-25T07:15:11.700Z,159.00
2022-12-25T07:16:14.977Z,224.93
2022-12-25T07:17:17.726Z,349.67
2022-12-25T07:18:20.591Z,193.55
2022-12-25T07:19:22.637Z,251.40
2022-12-25T07:20:26.055Z,173.48
2022-12-25T07:21:27.811Z,90.55
2022-12-25T07:22:30.991Z,87.43
2022-12-25T07:23:32.973Z,155.85
2022-12-25T07:24:35.768Z,119.55
2022-12-25T07:25:38.963Z,105.50
2022-12-25T07:26:41.800Z,163.85
2022-12-25T07:27:43.592Z,228.27
2022-12-25T07:28:46.387Z,300.30
2022-12-25T07:29:48.193Z,251.55
2022-12-25T07:30:50.984Z,131.95
2022-12-25T07:31:53.920Z,182.02
2022-12-25T07:32:56.681Z,157.43
2022-12-25T07:33:59.572Z,130.27
2022-12-25T07:35:01.346Z,341.13
2022-12-25T07:36:05.422Z,584.78
2022-12-25T07:37:07.319Z,196.75
2022-12-25T07:38:10.173Z,450.48
2022-12-25T07:39:12.583Z,488.20
2022-12-25T07:40:15.619Z,504.17
2022-12-25T07:41:18.770Z,503.95
2022-12-25T07:42:25.144Z,459.25
2022-12-25T07:43:29.499Z,332.27
2022-12-25T07:44:32.260Z,397.48
2022-12-25T07:45:34.153Z,531.10
2022-12-25T07:46:36.891Z,603.33
2022-12-25T07:47:38.640Z,372.30
2022-12-25T07:48:41.461Z,316.98
2022-12-25T07:49:43.280Z,480.08
2022-12-25T07:50:46.040Z,526.10
2022-12-25T07:51:47.921Z,491.25
2022-12-25T07:52:50.677Z,507.23
2022-12-25T07:53:55.196Z,619.30
2022-12-25T07:54:57.011Z,629.42
2022-12-25T07:56:01.216Z,568.90
2022-12-25T07:57:04.412Z,495.70
2022-12-25T07:58:07.357Z,434.23
2022-12-25T07:59:09.228Z,385.65
2022-12-25T08:00:13.236Z,265.85
2022-12-25T08:01:34.921Z,180.38
2022-12-25T08:02:37.445Z,127.95
2022-12-25T08:03:40.723Z,116.75
2022-12-25T08:04:42.791Z,88.00
2022-12-25T08:05:45.716Z,114.88
2022-12-25T08:06:47.496Z,103.95
2022-12-25T08:07:57.323Z,87.15
2022-12-25T08:09:04.458Z,128.93
2022-12-25T08:10:08.239Z,300.15
2022-12-25T08:11:10.439Z,83.53
2022-12-25T08:12:14.916Z,88.95
2022-12-25T08:13:16.757Z,98.00
2022-12-25T08:14:19.519Z,91.65
2022-12-25T08:15:21.885Z,87.45
2022-12-25T08:16:24.768Z,91.68
2022-12-25T08:17:26.618Z,88.95
2022-12-25T08:18:30.639Z,86.25
2022-12-25T08:19:32.653Z,89.47
2022-12-25T08:20:35.638Z,82.15
2022-12-25T08:21:39.291Z,82.72
2022-12-25T08:22:41.102Z,88.18
2022-12-25T08:23:45.914Z,83.03
2022-12-25T08:24:47.740Z,85.00
2022-12-25T08:25:50.552Z,75.20
2022-12-25T08:26:53.364Z,94.43
2022-12-25T08:27:56.700Z,90.85
2022-12-25T08:28:59.456Z,120.15
2022-12-25T08:30:01.293Z,91.22
2022-12-25T08:31:11.409Z,76.85
2022-12-25T08:32:13.184Z,73.15
2022-12-25T08:33:15.936Z,76.03
2022-12-25T08:34:19.291Z,71.95
2022-12-25T08:35:22.113Z,83.82
2022-12-25T08:36:24.511Z,80.53
2022-12-25T08:37:27.299Z,69.15
2022-12-25T08:38:29.088Z,74.40
2022-12-25T08:39:31.837Z,74.50
2022-12-25T08:40:33.736Z,76.82
2022-12-25T08:41:37.099Z,66.95
2022-12-25T08:42:38.915Z,70.07
2022-12-25T08:43:44.245Z,66.25
2022-12-25T08:44:46.017Z,69.63
2022-12-25T08:45:49.109Z,63.90
2022-12-25T08:46:51.064Z,64.53
2022-12-25T08:47:54.975Z,66.75
2022-12-25T08:48:57.075Z,64.60
2022-12-25T08:49:59.864Z,57.53
2022-12-25T08:51:02.299Z,69.70
2022-12-25T08:52:05.271Z,76.13
2022-12-25T08:53:07.077Z,61.15
2022-12-25T08:54:09.992Z,67.43
2022-12-25T08:55:12.043Z,68.10
2022-12-25T08:56:15.740Z,69.53
2022-12-25T08:57:17.607Z,74.53
2022-12-25T08:58:20.348Z,80.50
2022-12-25T08:59:24.915Z,72.68
2022-12-25T09:00:26.699Z,70.05
2022-12-25T09:01:29.573Z,67.05
2022-12-25T09:02:32.987Z,71.20
2022-12-25T09:03:35.006Z,73.05
2022-12-25T09:04:37.780Z,63.13
2022-12-25T09:05:39.726Z,80.05
2022-12-25T09:06:42.571Z,75.90
2022-12-25T09:07:44.499Z,75.65
2022-12-25T09:08:49.596Z,71.63
2022-12-25T09:09:52.324Z,81.30
2022-12-25T09:10:55.219Z,77.05
2022-12-25T09:11:57.102Z,69.20
2022-12-25T09:12:59.963Z,68.28
2022-12-25T09:14:02.840Z,68.43
2022-12-25T09:15:07.195Z,64.00
2022-12-25T09:16:11.877Z,62.40
2022-12-25T09:17:13.780Z,53.85
2022-12-25T09:18:16.541Z,54.95
2022-12-25T09:19:18.330Z,55.92
2022-12-25T09:20:21.255Z,57.15
2022-12-25T09:21:23.120Z,56.88
2022-12-25T09:22:25.882Z,57.65
2022-12-25T09:23:28.632Z,50.03
2022-12-25T09:24:31.478Z,49.03
2022-12-25T09:25:33.381Z,48.38
2022-12-25T09:26:36.116Z,54.10
2022-12-25T09:27:37.942Z,48.17
2022-12-25T09:28:46.580Z,54.88
2022-12-25T09:29:53.278Z,52.35
2022-12-25T09:30:56.556Z,55.53
2022-12-25T09:31:59.323Z,45.78
2022-12-25T09:33:01.091Z,48.65
2022-12-25T09:34:04.151Z,53.72
2022-12-25T09:35:06.565Z,52.35
2022-12-25T09:36:10.262Z,47.28
2022-12-25T09:37:12.035Z,50.15
2022-12-25T09:38:14.853Z,48.38
2022-12-25T09:39:17.604Z,57.47
2022-12-25T09:40:23.121Z,45.55
2022-12-25T09:41:30.471Z,48.38
2022-12-25T09:42:34.391Z,45.58
2022-12-25T09:43:41.028Z,48.38
2022-12-25T09:44:46.218Z,44.80
2022-12-25T09:45:48.098Z,45.53
2022-12-25T09:47:14.738Z,43.38
2022-12-25T09:48:16.622Z,42.13
2022-12-25T09:49:22.857Z,43.33
2022-12-25T09:50:32.422Z,41.97
2022-12-25T09:51:39.037Z,38.00
2022-12-25T09:52:44.200Z,40.45
2022-12-25T09:53:52.816Z,36.15
2022-12-25T09:54:57.802Z,39.83
2022-12-25T09:56:05.961Z,36.50
2022-12-25T09:57:11.152Z,37.75
2022-12-25T09:58:15.737Z,37.53
2022-12-25T09:59:24.143Z,33.78
2022-12-25T10:00:30.737Z,34.72
2022-12-25T10:01:37.630Z,34.13
2022-12-25T10:03:11.426Z,35.45
2022-12-25T10:04:29.411Z,32.92
2022-12-25T10:05:48.605Z,33.35
2022-12-25T10:07:02.691Z,36.58
2022-12-25T10:08:12.807Z,34.17
2022-12-25T10:09:36.267Z,34.30
2022-12-25T10:10:47.711Z,30.10
2022-12-25T10:12:06.182Z,33.50
2022-12-25T10:13:19.376Z,33.30
2022-12-25T10:14:25.961Z,31.92
2022-12-25T10:15:37.831Z,34.50
2022-12-25T10:16:48.984Z,30.08
2022-12-25T10:18:02.675Z,33.95
2022-12-25T10:19:14.585Z,32.63
2022-12-25T10:20:23.742Z,31.45
2022-12-25T10:21:27.969Z,38.30
2022-12-25T10:22:34.719Z,29.80
2022-12-25T10:23:39.354Z,29.92
2022-12-25T10:24:46.739Z,32.08
2022-12-25T10:25:49.508Z,28.88
2022-12-25T10:26:51.957Z,25.00
2022-12-25T10:27:57.431Z,23.85
2022-12-25T10:29:04.242Z,27.83
2022-12-25T10:30:15.589Z,34.83
2022-12-25T10:31:22.620Z,36.08
2022-12-25T10:32:24.558Z,30.88
2022-12-25T10:33:28.605Z,36.00
2022-12-25T10:34:32.614Z,32.35
2022-12-25T10:35:35.400Z,35.88
2022-12-25T10:36:37.229Z,36.13
2022-12-25T10:37:40.223Z,39.22
2022-12-25T10:38:42.007Z,34.35
2022-12-25T10:39:46.966Z,34.45
2022-12-25T10:41:00.195Z,30.52
2022-12-25T10:42:27.663Z,34.05
2022-12-25T10:43:32.876Z,37.35
2022-12-25T10:44:35.754Z,34.42
2022-12-25T10:45:45.185Z,33.40
2022-12-25T10:46:49.851Z,35.38
2022-12-25T10:48:07.155Z,30.42
2022-12-25T10:49:14.826Z,27.77
2022-12-25T10:50:24.196Z,34.38
2022-12-25T10:51:31.967Z,29.35
2022-12-25T10:52:33.819Z,29.08
2022-12-25T10:53:39.798Z,29.35
2022-12-25T10:54:41.613Z,30.63
2022-12-25T10:55:44.380Z,24.08
2022-12-25T10:56:54.314Z,23.83
2022-12-25T10:57:57.855Z,25.45
2022-12-25T10:59:07.069Z,23.98
2022-12-25T11:00:20.583Z,24.23
2022-12-25T11:01:28.867Z,27.95
2022-12-25T11:02:34.405Z,28.88
2022-12-25T11:03:40.135Z,21.58
2022-12-25T11:04:42.528Z,24.98
2022-12-25T11:05:51.236Z,24.13
2022-12-25T11:06:58.123Z,24.40
2022-12-25T11:08:02.326Z,23.13
2022-12-25T11:09:04.155Z,20.70
2022-12-25T11:10:21.747Z,22.70
2022-12-25T11:11:24.065Z,29.83
2022-12-25T11:12:30.719Z,29.25
2022-12-25T11:13:34.877Z,20.92
2022-12-25T11:14:38.376Z,30.13
2022-12-25T11:15:42.286Z,24.40
2022-12-25T11:16:45.861Z,28.85
2022-12-25T11:17:48.855Z,26.17
2022-12-25T11:18:53.539Z,22.65
2022-12-25T11:19:57.105Z,21.67
2022-12-25T11:21:03.120Z,21.65
2022-12-25T11:22:18.074Z,27.25
2022-12-25T11:23:21.878Z,20.98
2022-12-25T11:24:28.701Z,23.10
2022-12-25T11:25:30.489Z,20.80
2022-12-25T11:26:37.491Z,17.83
2022-12-25T11:27:39.308Z,24.10
2022-12-25T11:28:43.226Z,24.92
2022-12-25T11:29:48.307Z,24.33
2022-12-25T11:30:53.395Z,19.50
2022-12-25T11:31:58.151Z,19.10
2022-12-25T11:33:03.357Z,20.15
2022-12-25T11:34:07.854Z,22.17
2022-12-25T11:35:12.965Z,16.85
2022-12-25T11:36:21.602Z,22.92
2022-12-25T11:37:29.050Z,25.90
2022-12-25T11:38:32.205Z,21.05
2022-12-25T11:39:36.458Z,20.60
2022-12-25T11:40:43.897Z,24.70
2022-12-25T11:41:46.538Z,20.88
2022-12-25T11:42:51.385Z,23.13
2022-12-25T11:43:56.846Z,23.77
2022-12-25T11:45:03.673Z,23.50
2022-12-25T11:46:12.118Z,16.40
2022-12-25T11:47:18.863Z,19.35
2022-12-25T11:48:25.235Z,19.85
2022-12-25T11:49:28.626Z,23.52
2022-12-25T11:50:32.796Z,19.77
2022-12-25T11:51:40.179Z,22.77
2022-12-25T11:52:45.474Z,21.10
2022-12-25T11:53:51.705Z,15.98
2022-12-25T11:54:57.601Z,16.48
2022-12-25T11:56:02.858Z,18.50
2022-12-25T11:57:06.312Z,21.00
2022-12-25T11:58:15.273Z,18.42
2022-12-25T11:59:21.820Z,15.52
2022-12-25T12:00:24.816Z,18.80
2022-12-25T12:01:29.809Z,20.50
2022-12-25T12:02:36.573Z,16.27
2022-12-25T12:03:41.004Z,18.23
2022-12-25T12:04:45.321Z,12.93
2022-12-25T12:05:52.403Z,15.32
2022-12-25T12:06:57.905Z,14.38
2022-12-25T12:08:01.916Z,21.52
2022-12-25T12:09:23.821Z,17.25
2022-12-25T12:10:36.647Z,14.73
2022-12-25T12:11:41.507Z,16.40
2022-12-25T12:12:52.475Z,15.40
2022-12-25T12:14:03.375Z,13.23
2022-12-25T12:15:15.004Z,13.63
2022-12-25T12:16:17.869Z,14.25
2022-12-25T12:17:19.884Z,13.73
2022-12-25T12:18:24.166Z,15.68
2022-12-25T12:19:28.007Z,18.48
2022-12-25T12:20:33.295Z,14.35
2022-12-25T12:21:35.096Z,14.80
2022-12-25T12:22:39.314Z,13.45
2022-12-25T12:23:49.147Z,16.10
2022-12-25T12:24:56.174Z,16.45
2022-12-25T12:25:58.188Z,12.27
2022-12-25T12:27:02.601Z,11.40
2022-12-25T12:28:05.818Z,15.90
2022-12-25T12:29:09.772Z,16.33
2022-12-25T12:30:23.812Z,15.40
2022-12-25T12:31:37.963Z,16.40
2022-12-25T12:32:41.605Z,18.05
2022-12-25T12:33:51.727Z,16.15
2022-12-25T12:34:55.085Z,17.42
2022-12-25T12:35:58.532Z,15.95
2022-12-25T12:37:02.491Z,16.77
2022-12-25T12:38:08.804Z,18.33
2022-12-25T12:39:21.697Z,17.98
2022-12-25T12:40:28.495Z,14.02
2022-12-25T12:41:43.036Z,13.38
2022-12-25T12:42:50.726Z,14.48
2022-12-25T12:43:55.947Z,10.38
2022-12-25T12:45:07.645Z,11.88
2022-12-25T12:46:17.169Z,13.15
2022-12-25T12:47:30.293Z,13.35
2022-12-25T12:48:40.548Z,12.98
2022-12-25T12:49:42.440Z,10.98
2022-12-25T12:50:45.272Z,12.55
2022-12-25T12:51:47.930Z,11.73
2022-12-25T12:52:50.691Z,13.50
2022-12-25T12:54:06.757Z,10.65
2022-12-25T12:55:13.412Z,9.52
2022-12-25T12:56:18.905Z,12.07
2022-12-25T12:57:25.868Z,11.50
2022-12-25T12:58:33.080Z,10.95
2022-12-25T12:59:38.982Z,10.68
2022-12-25T13:00:47.931Z,9.52
2022-12-25T13:01:59.698Z,11.50
2022-12-25T13:03:13.760Z,9.88
2022-12-25T13:04:32.341Z,11.48
2022-12-25T13:05:40.351Z,10.65
2022-12-25T13:06:45.105Z,12.85
2022-12-25T13:07:54.916Z,11.35
2022-12-25T13:09:06.011Z,13.20
2022-12-25T13:10:15.079Z,11.45
2022-12-25T13:11:20.090Z,12.15
2022-12-25T13:12:23.498Z,12.02
2022-12-25T13:13:29.129Z,10.63
2022-12-25T13:14:32.080Z,12.00
2022-12-25T13:15:35.143Z,9.70
2022-12-25T13:16:40.216Z,8.65
2022-12-25T13:17:43.761Z,11.10
2022-12-25T13:18:47.042Z,11.50
2022-12-25T13:19:51.091Z,13.60
2022-12-25T13:20:56.132Z,9.65
2022-12-25T13:21:59.144Z,12.40
2022-12-25T13:23:01.858Z,12.05
2022-12-25T13:24:08.964Z,11.57
2022-12-25T13:25:19.126Z,12.20
2022-12-25T13:26:20.893Z,9.43
2022-12-25T13:27:25.104Z,10.35
2022-12-25T13:28:28.365Z,13.30
2022-12-25T13:29:31.845Z,12.57
2022-12-25T13:30:34.181Z,9.02
2022-12-25T13:31:37.062Z,11.90
2022-12-25T13:32:38.921Z,13.25
2022-12-25T13:33:42.379Z,11.65
2022-12-25T13:34:44.556Z,12.70
2022-12-25T13:35:47.932Z,10.25
2022-12-25T13:36:49.832Z,13.38
2022-12-25T13:37:54.723Z,9.25
2022-12-25T13:38:57.965Z,10.45
2022-12-25T13:40:05.144Z,12.77
2022-12-25T13:41:25.311Z,11.50
2022-12-25T13:42:29.750Z,9.45
2022-12-25T13:43:31.658Z,10.77
2022-12-25T13:44:41.688Z,11.07
2022-12-25T13:45:55.396Z,10.27
2022-12-25T13:47:08.301Z,12.20
2022-12-25T13:48:15.975Z,13.00
2022-12-25T13:49:19.618Z,13.15
2022-12-25T13:50:24.739Z,10.52
2022-12-25T13:51:27.330Z,10.15
2022-12-25T13:52:34.341Z,10.38
2022-12-25T13:53:36.116Z,10.82
2022-12-25T13:54:38.952Z,11.77
2022-12-25T13:55:42.609Z,10.30
2022-12-25T13:56:48.140Z,9.73
2022-12-25T13:57:52.626Z,9.60
2022-12-25T13:58:55.397Z,10.55
2022-12-25T13:59:57.739Z,9.48
2022-12-25T14:01:01.867Z,11.07
2022-12-25T14:02:03.865Z,10.95
2022-12-25T14:03:10.270Z,9.85
2022-12-25T14:04:16.006Z,11.95
2022-12-25T14:05:25.783Z,13.38
2022-12-25T14:06:29.456Z,8.90
2022-12-25T14:07:34.249Z,9.88